Curitiba, Brazil

3:18 PM -03 on March 23, 2017 (GMT -0300)
Afonso Pena | | Change Station

Elev 2979 ft 25.52 °S, 49.17 °W | Updated 18 minutes ago

Mostly Cloudy
Mostly Cloudy
75 °F
Feels Like 75 °F
N
4
Wind Variable Wind from SW

Today
High -- | Low -- °F
--% Chance of Precip.
Yesterday
High -- | Low -- °F
Precip. -- in
Pressure 30.09 in
Visibility 6.2 miles
Clouds Mostly Cloudy 4000 ft
Dew Point 55 °F
Humidity 50%
Rainfall 0.00 in
Snow Depth Not available.
6:21 AM 6:24 PM
Waning Crescent, 21% visible
METAR SBCT 231800Z 22003KT 9999 BKN040 24/13 Q1019
Pressure 30.09 in
Visibility 6.2 miles
Clouds Mostly Cloudy 4000 ft
Dew Point 55 °F
Humidity 50%
Rainfall 0.00 in
Snow Depth Not available.
6:21 AM 6:24 PM
Waning Crescent, 21% visible
METAR SBCT 231800Z 22003KT 9999 BKN040 24/13 Q1019

Get Severe Weather Alerts

Thanks for signing up!

Be on the lookout for a verification email in your inbox.

You'll start receiving the daily forecast at 8 AM.

×

10-Day Weather Forecast

No radar image for this location.
×

Almanac

Astronomy

Mar. 23, 2017 Rise Set
Actual Time
Civil Twilight
Nautical Twilight
Astronomical Twilight
Moon
Length of Visible Light
Length of Day
Tomorrow will be .
, % of the Moon is Illuminated

Today's Extremes

Country Highs Country Lows

Community

WunderPhotos

Upload Photos

1,962,540 photos uploaded!

WunderBlog® & News

Nearby

Air Quality

  Air Quality AQ Index Pollutant
Not available.

Snow Depth

Station Depth Elevation

Earthquake Activity

City Distance Mag. Time & Date
Minimum magnitude displayed is 2.5.

Earthquake Activity

City Distance Mag. Time & Date
Minimum magnitude displayed is 2.5.

Coastal Water Temperatures

Place Temperature

Stations

Nearby Weather Stations

Station Location Temp. Windchill Dew Point Humidity Wind Precip. Elev Updated Type